Time;durP1;ratioP1;P1;durP2;ratioP2;P2;SDS_P1;SDS_P2;PMS_P1;PMS_P2;Temp;Humidity;BMP_temperature;BMP_pressure;BME280_temperature;BME280_humidity;BME280_pressure;Samples;Min_cycle;Max_cycle;Signal;HPM_P1;HPM_P2
2023/07/29 00:01:51;;;;;;;4.88;2.80;;;;;;;;;;5100122;28;20029;-45
2023/07/29 00:04:16;;;;;;;3.70;2.85;;;;;;;;;;5105016;28;20107;-45
2023/07/29 00:06:42;;;;;;;4.43;3.08;;;;;;;;;;5109756;27;20023;-47
2023/07/29 00:09:07;;;;;;;4.67;3.50;;;;;;;;;;5109069;27;20027;-45
2023/07/29 00:11:33;;;;;;;5.10;2.47;;;;;;;;;;5105371;27;20053;-45
2023/07/29 00:13:59;;;;;;;3.80;2.50;;;;;;;;;;5105689;27;20077;-46
2023/07/29 00:16:24;;;;;;;4.30;2.40;;;;;;;;;;5110668;27;20032;-45
2023/07/29 00:18:50;;;;;;;2.83;2.10;;;;;;;;;;5099903;27;20035;-46
2023/07/29 00:21:15;;;;;;;3.75;2.28;;;;;;;;;;5098683;27;20548;-46
2023/07/29 00:23:40;;;;;;;5.37;2.33;;;;;;;;;;5097179;27;20031;-47
2023/07/29 00:26:06;;;;;;;3.00;2.37;;;;;;;;;;5097116;27;20285;-45
2023/07/29 00:28:31;;;;;;;2.90;2.20;;;;;;;;;;5097333;28;20301;-45
2023/07/29 00:30:56;;;;;;;4.80;3.20;;;;;;;;;;5099500;27;20024;-45
2023/07/29 00:33:21;;;;;;;3.27;2.27;;;;;;;;;;5097659;27;20511;-45
2023/07/29 00:35:47;;;;;;;4.17;2.50;;;;;;;;;;5100044;27;20324;-45
2023/07/29 00:38:12;;;;;;;3.20;2.30;;;;;;;;;;5095934;27;20326;-45
2023/07/29 00:40:37;;;;;;;3.53;2.67;;;;;;;;;;5097183;27;21753;-46
2023/07/29 00:43:02;;;;;;;3.87;2.73;;;;;;;;;;5093311;27;20081;-45
2023/07/29 00:45:29;;;;;;;3.92;2.72;;;;;;;;;;5089356;28;20638;-45
2023/07/29 00:47:54;;;;;;;5.82;2.30;;;;;;;;;;5096431;27;20102;-44
2023/07/29 00:50:19;;;;;;;20.75;4.30;;;;;;;;;;5107333;27;20033;-45
2023/07/29 00:52:45;;;;;;;3.42;2.53;;;;;;;;;;5095850;27;20449;-45
2023/07/29 00:55:11;;;;;;;3.97;2.50;;;;;;;;;;5094253;27;20036;-46
2023/07/29 00:57:36;;;;;;;4.15;2.38;;;;;;;;;;5092678;27;20016;-45
2023/07/29 01:00:02;;;;;;;5.33;2.70;;;;;;;;;;5094569;27;20059;-45
2023/07/29 01:02:29;;;;;;;3.17;2.20;;;;;;;;;;5093825;27;20032;-45
2023/07/29 01:04:55;;;;;;;3.78;2.30;;;;;;;;;;5098552;27;20104;-45
2023/07/29 01:07:33;;;;;;;5.43;2.70;;;;;;;;;;5100567;27;20016;-45
2023/07/29 01:10:19;;;;;;;3.60;2.67;;;;;;;;;;5096660;28;20100;-45
2023/07/29 01:12:45;;;;;;;4.35;2.35;;;;;;;;;;5089622;27;20111;-45
2023/07/29 01:15:20;;;;;;;4.45;2.28;;;;;;;;;;5092098;27;20980;-45
2023/07/29 01:17:46;;;;;;;4.03;2.88;;;;;;;;;;5105130;27;20930;-45
2023/07/29 01:20:14;;;;;;;3.95;2.50;;;;;;;;;;5096079;27;20386;-46
2023/07/29 01:22:39;;;;;;;4.47;2.13;;;;;;;;;;5095886;27;20500;-45
2023/07/29 01:25:05;;;;;;;3.65;2.67;;;;;;;;;;5109471;27;20091;-45
2023/07/29 01:27:30;;;;;;;3.17;2.22;;;;;;;;;;5100428;27;20496;-45
2023/07/29 01:29:56;;;;;;;3.10;2.30;;;;;;;;;;5097534;27;20035;-44
2023/07/29 01:32:28;;;;;;;2.95;2.03;;;;;;;;;;5109073;27;20284;-45
2023/07/29 01:34:59;;;;;;;4.35;2.70;;;;;;;;;;5106267;27;20081;-45
2023/07/29 01:37:27;;;;;;;3.33;2.28;;;;;;;;;;5099721;27;20023;-45
2023/07/29 01:39:54;;;;;;;6.40;2.10;;;;;;;;;;5096673;27;20073;-45
2023/07/29 01:42:20;;;;;;;2.33;1.48;;;;;;;;;;5103637;27;20516;-45
2023/07/29 01:44:45;;;;;;;3.55;2.45;;;;;;;;;;5107930;27;20023;-45
2023/07/29 01:47:11;;;;;;;2.50;1.70;;;;;;;;;;5107542;27;20015;-45
2023/07/29 01:49:36;;;;;;;3.33;2.20;;;;;;;;;;5105120;27;20269;-47
2023/07/29 01:52:02;;;;;;;2.83;1.90;;;;;;;;;;5107738;27;20030;-46
2023/07/29 01:54:27;;;;;;;4.28;2.08;;;;;;;;;;5106964;27;20887;-45
2023/07/29 01:56:52;;;;;;;3.70;2.43;;;;;;;;;;5103683;27;20026;-45
2023/07/29 01:59:18;;;;;;;1.65;1.17;;;;;;;;;;5096635;27;20266;-45
2023/07/29 02:01:43;;;;;;;3.03;2.33;;;;;;;;;;5103400;27;20098;-44
2023/07/29 02:04:08;;;;;;;3.42;2.10;;;;;;;;;;5105066;27;20088;-45
2023/07/29 02:06:34;;;;;;;2.93;2.00;;;;;;;;;;5103022;27;20072;-45
2023/07/29 02:08:59;;;;;;;3.17;2.15;;;;;;;;;;5104817;28;20410;-45
2023/07/29 02:11:27;;;;;;;4.20;2.13;;;;;;;;;;5107063;27;21047;-45
2023/07/29 02:13:53;;;;;;;2.97;2.05;;;;;;;;;;5099876;27;20024;-46
2023/07/29 02:16:18;;;;;;;4.85;2.45;;;;;;;;;;5098665;27;20391;-45
2023/07/29 02:18:44;;;;;;;3.93;2.40;;;;;;;;;;5105282;27;20672;-44
2023/07/29 02:21:09;;;;;;;5.67;2.63;;;;;;;;;;5104973;27;20020;-46
2023/07/29 02:23:34;;;;;;;3.57;2.30;;;;;;;;;;5108223;27;20043;-45
2023/07/29 02:25:59;;;;;;;4.37;2.23;;;;;;;;;;5105226;27;20542;-45
2023/07/29 02:28:25;;;;;;;5.50;2.80;;;;;;;;;;5101171;27;20273;-45
2023/07/29 02:31:08;;;;;;;4.07;2.50;;;;;;;;;;5092016;28;20071;-45
2023/07/29 02:33:33;;;;;;;3.20;2.22;;;;;;;;;;5102278;27;20059;-45
2023/07/29 02:35:59;;;;;;;3.07;2.13;;;;;;;;;;5100644;27;20102;-46
2023/07/29 02:38:24;;;;;;;2.97;2.27;;;;;;;;;;5102636;27;20519;-45
2023/07/29 02:40:49;;;;;;;4.20;2.70;;;;;;;;;;5097938;27;20277;-45
2023/07/29 02:43:14;;;;;;;3.60;2.30;;;;;;;;;;5090902;28;20280;-46
2023/07/29 02:45:39;;;;;;;3.70;2.50;;;;;;;;;;5096052;28;20023;-45
2023/07/29 02:48:05;;;;;;;4.53;2.33;;;;;;;;;;5104066;27;20042;-46
2023/07/29 02:50:30;;;;;;;3.83;2.55;;;;;;;;;;5103524;27;20498;-45
2023/07/29 02:52:55;;;;;;;3.47;2.53;;;;;;;;;;5102805;27;20020;-45
2023/07/29 02:55:20;;;;;;;4.20;2.40;;;;;;;;;;5101499;27;20020;-45
2023/07/29 02:57:46;;;;;;;4.27;2.97;;;;;;;;;;5097512;28;20072;-46
2023/07/29 03:00:11;;;;;;;3.80;2.70;;;;;;;;;;5092788;27;20514;-45
2023/07/29 03:02:36;;;;;;;4.35;3.40;;;;;;;;;;5096075;27;20036;-46
2023/07/29 03:05:03;;;;;;;5.73;2.40;;;;;;;;;;5098795;28;20015;-45
2023/07/29 03:07:28;;;;;;;4.72;2.70;;;;;;;;;;5096504;27;20035;-44
2023/07/29 03:09:53;;;;;;;4.83;2.73;;;;;;;;;;5100777;27;20362;-46
2023/07/29 03:12:19;;;;;;;4.20;2.40;;;;;;;;;;5103376;28;20015;-46
2023/07/29 03:14:47;;;;;;;3.95;2.80;;;;;;;;;;5087903;28;20065;-44
2023/07/29 03:17:12;;;;;;;3.63;2.75;;;;;;;;;;5098157;27;20015;-45
2023/07/29 03:19:37;;;;;;;4.07;2.47;;;;;;;;;;5085226;28;21010;-45
2023/07/29 03:22:03;;;;;;;3.73;2.50;;;;;;;;;;5095832;28;20028;-45
2023/07/29 03:24:28;;;;;;;4.07;2.90;;;;;;;;;;5099063;28;20023;-45
2023/07/29 03:26:54;;;;;;;4.07;1.95;;;;;;;;;;5102945;27;20368;-46
2023/07/29 03:29:19;;;;;;;3.10;1.75;;;;;;;;;;5096259;28;20118;-45
2023/07/29 03:31:44;;;;;;;4.57;2.30;;;;;;;;;;5100269;28;20058;-45
2023/07/29 03:34:11;;;;;;;7.63;2.67;;;;;;;;;;5100499;27;20301;-45
2023/07/29 03:36:36;;;;;;;6.00;2.78;;;;;;;;;;5096704;28;20368;-46
2023/07/29 03:39:03;;;;;;;10.07;4.93;;;;;;;;;;5101948;28;20385;-44
2023/07/29 03:41:28;;;;;;;18.45;9.57;;;;;;;;;;5102532;27;21253;-45
2023/07/29 03:43:54;;;;;;;16.77;6.75;;;;;;;;;;5106905;27;20055;-45
2023/07/29 03:46:21;;;;;;;13.23;6.77;;;;;;;;;;5101935;27;20109;-45
2023/07/29 03:48:47;;;;;;;8.25;4.20;;;;;;;;;;5098794;27;20292;-45
2023/07/29 03:51:12;;;;;;;6.93;3.97;;;;;;;;;;5101956;27;20020;-44
2023/07/29 03:53:37;;;;;;;7.43;3.05;;;;;;;;;;5097048;27;20024;-45
2023/07/29 03:56:02;;;;;;;4.20;2.73;;;;;;;;;;5101952;28;20377;-44
2023/07/29 03:58:28;;;;;;;4.85;1.92;;;;;;;;;;5105558;27;20020;-45
2023/07/29 04:00:53;;;;;;;4.30;2.60;;;;;;;;;;5103399;27;20030;-47
2023/07/29 04:03:18;;;;;;;6.60;3.67;;;;;;;;;;5102485;27;21307;-44
2023/07/29 04:05:44;;;;;;;6.80;3.40;;;;;;;;;;5106555;27;20506;-45
2023/07/29 04:08:09;;;;;;;5.20;3.10;;;;;;;;;;5098440;28;20019;-45
2023/07/29 04:10:35;;;;;;;6.70;3.40;;;;;;;;;;5095107;27;20031;-45
2023/07/29 04:13:00;;;;;;;6.47;3.13;;;;;;;;;;5103610;27;20521;-45
2023/07/29 04:15:25;;;;;;;4.97;2.85;;;;;;;;;;5104307;27;20024;-46
2023/07/29 04:17:51;;;;;;;3.63;2.53;;;;;;;;;;5096927;27;20025;-46
2023/07/29 04:20:16;;;;;;;4.13;2.80;;;;;;;;;;5101194;27;20751;-45
2023/07/29 04:22:41;;;;;;;4.10;2.53;;;;;;;;;;5093365;27;20072;-45
2023/07/29 04:25:06;;;;;;;5.53;3.07;;;;;;;;;;5098430;27;20023;-45
2023/07/29 04:27:32;;;;;;;4.75;2.90;;;;;;;;;;5096094;27;20035;-46
2023/07/29 04:29:57;;;;;;;5.75;2.85;;;;;;;;;;5094319;28;20024;-44
2023/07/29 04:32:22;;;;;;;5.77;2.80;;;;;;;;;;5098427;27;20056;-45
2023/07/29 04:34:47;;;;;;;5.60;2.83;;;;;;;;;;5096607;27;20068;-45
2023/07/29 04:37:13;;;;;;;4.60;3.13;;;;;;;;;;5097043;27;20269;-45
2023/07/29 04:39:38;;;;;;;6.77;3.30;;;;;;;;;;5093545;27;20039;-45
2023/07/29 04:42:03;;;;;;;5.18;3.38;;;;;;;;;;5091541;27;20036;-45
2023/07/29 04:44:29;;;;;;;4.97;3.45;;;;;;;;;;5099022;27;20027;-45
2023/07/29 04:46:54;;;;;;;6.00;3.70;;;;;;;;;;5096779;27;20044;-45
2023/07/29 04:49:19;;;;;;;6.90;4.07;;;;;;;;;;5096335;27;20403;-45
2023/07/29 04:51:44;;;;;;;6.53;3.67;;;;;;;;;;5106297;27;20106;-45
2023/07/29 04:54:10;;;;;;;7.60;3.73;;;;;;;;;;5093339;27;20140;-45
2023/07/29 04:56:35;;;;;;;7.87;3.97;;;;;;;;;;5098357;27;20054;-46
2023/07/29 04:59:00;;;;;;;7.90;3.67;;;;;;;;;;5098542;27;20388;-45
2023/07/29 05:01:25;;;;;;;6.93;3.90;;;;;;;;;;5100860;27;20277;-46
2023/07/29 05:03:51;;;;;;;4.85;3.58;;;;;;;;;;5098206;28;20551;-44
2023/07/29 05:06:16;;;;;;;6.55;4.32;;;;;;;;;;5103478;27;20035;-45
2023/07/29 05:08:42;;;;;;;5.90;4.18;;;;;;;;;;5105274;27;20027;-47
2023/07/29 05:11:07;;;;;;;6.37;4.30;;;;;;;;;;5103216;27;20036;-45
2023/07/29 05:13:32;;;;;;;7.97;3.90;;;;;;;;;;5104867;27;20019;-45
2023/07/29 05:15:57;;;;;;;6.27;4.07;;;;;;;;;;5109001;27;20487;-44
2023/07/29 05:18:23;;;;;;;6.90;4.70;;;;;;;;;;5105869;27;20286;-45
2023/07/29 05:20:48;;;;;;;8.05;4.10;;;;;;;;;;5104216;27;21232;-45
2023/07/29 05:23:14;;;;;;;13.00;6.00;;;;;;;;;;5102753;27;20035;-45
2023/07/29 05:25:39;;;;;;;6.60;3.93;;;;;;;;;;5106954;27;20512;-45
2023/07/29 05:28:04;;;;;;;6.55;3.83;;;;;;;;;;5094923;27;20282;-46
2023/07/29 05:30:33;;;;;;;9.07;5.17;;;;;;;;;;5100224;27;20449;-46
2023/07/29 05:32:59;;;;;;;11.25;5.18;;;;;;;;;;5105672;27;20277;-45
2023/07/29 05:35:24;;;;;;;10.50;5.72;;;;;;;;;;5097525;27;20023;-45
2023/07/29 05:37:49;;;;;;;7.38;5.28;;;;;;;;;;5100251;27;20424;-45
2023/07/29 05:40:15;;;;;;;10.13;4.97;;;;;;;;;;5102693;27;20393;-45
2023/07/29 05:42:40;;;;;;;7.85;5.35;;;;;;;;;;5101788;27;20066;-45
2023/07/29 05:45:06;;;;;;;7.00;4.90;;;;;;;;;;5098096;27;20027;-45
2023/07/29 05:47:31;;;;;;;11.85;6.47;;;;;;;;;;5098551;27;20016;-45
2023/07/29 05:49:56;;;;;;;9.60;6.50;;;;;;;;;;5093288;27;20047;-45
2023/07/29 05:52:22;;;;;;;10.17;5.60;;;;;;;;;;5107742;27;20652;-45
2023/07/29 05:54:47;;;;;;;9.00;5.10;;;;;;;;;;5100670;27;20282;-45
2023/07/29 05:57:12;;;;;;;8.87;5.57;;;;;;;;;;5108090;27;20094;-45
2023/07/29 05:59:37;;;;;;;8.93;5.50;;;;;;;;;;5099790;27;20023;-45
2023/07/29 06:02:03;;;;;;;9.02;5.38;;;;;;;;;;5089101;27;20050;-45
2023/07/29 06:04:28;;;;;;;12.65;6.43;;;;;;;;;;5088844;27;20088;-45
2023/07/29 06:06:55;;;;;;;10.40;5.43;;;;;;;;;;5098215;27;20077;-44
2023/07/29 06:09:20;;;;;;;9.43;4.65;;;;;;;;;;5102837;27;20296;-45
2023/07/29 06:11:45;;;;;;;9.13;5.50;;;;;;;;;;5097063;27;20482;-46
2023/07/29 06:14:11;;;;;;;8.67;5.80;;;;;;;;;;5104544;27;20023;-45
2023/07/29 06:16:36;;;;;;;9.00;5.80;;;;;;;;;;5099863;27;20022;-45
2023/07/29 06:19:01;;;;;;;10.07;6.07;;;;;;;;;;5099523;27;20375;-46
2023/07/29 06:21:27;;;;;;;9.38;5.70;;;;;;;;;;5093967;27;20104;-46
2023/07/29 06:23:52;;;;;;;11.35;6.30;;;;;;;;;;5101475;27;20037;-45
2023/07/29 06:26:18;;;;;;;8.88;5.78;;;;;;;;;;5101471;28;20089;-45
2023/07/29 06:28:43;;;;;;;7.33;5.00;;;;;;;;;;5100583;27;20055;-45
2023/07/29 06:31:08;;;;;;;8.38;5.63;;;;;;;;;;5096913;27;20805;-45
2023/07/29 06:33:34;;;;;;;8.25;5.32;;;;;;;;;;5103306;27;21718;-45
2023/07/29 06:35:59;;;;;;;7.80;5.03;;;;;;;;;;5086275;27;20019;-46
2023/07/29 06:38:24;;;;;;;8.57;5.77;;;;;;;;;;5102622;27;20667;-45
2023/07/29 06:40:50;;;;;;;7.27;5.07;;;;;;;;;;5102110;27;20292;-47
2023/07/29 06:43:15;;;;;;;8.77;5.80;;;;;;;;;;5096236;27;20505;-44
2023/07/29 06:45:41;;;;;;;8.90;5.43;;;;;;;;;;5089171;27;20685;-45
2023/07/29 06:48:06;;;;;;;8.25;6.00;;;;;;;;;;5101727;27;20023;-45
2023/07/29 06:50:32;;;;;;;17.65;9.25;;;;;;;;;;5098886;27;20178;-47
2023/07/29 06:52:57;;;;;;;14.80;7.93;;;;;;;;;;5103009;27;20042;-45
2023/07/29 06:55:23;;;;;;;11.98;7.20;;;;;;;;;;5106205;27;20289;-45
2023/07/29 06:57:49;;;;;;;9.23;6.70;;;;;;;;;;5097801;28;20022;-45
2023/07/29 07:00:14;;;;;;;10.07;7.23;;;;;;;;;;5105018;27;20018;-46
2023/07/29 07:02:39;;;;;;;9.30;6.95;;;;;;;;;;5098642;27;20877;-45
2023/07/29 07:05:05;;;;;;;11.40;7.87;;;;;;;;;;5092949;27;20036;-45
2023/07/29 07:07:30;;;;;;;11.05;7.57;;;;;;;;;;5100170;27;20281;-45
2023/07/29 07:09:55;;;;;;;10.00;7.15;;;;;;;;;;5098606;27;20100;-44
2023/07/29 07:12:21;;;;;;;10.90;7.57;;;;;;;;;;5104158;27;20433;-45
2023/07/29 07:14:46;;;;;;;11.17;7.53;;;;;;;;;;5100261;27;20024;-46
2023/07/29 07:17:11;;;;;;;7.95;6.60;;;;;;;;;;5099945;28;20027;-45
2023/07/29 07:19:37;;;;;;;10.47;7.07;;;;;;;;;;5099798;28;20022;-44
2023/07/29 07:22:02;;;;;;;10.35;7.53;;;;;;;;;;5106046;27;20053;-45
2023/07/29 07:24:28;;;;;;;12.05;7.28;;;;;;;;;;5080885;28;20440;-45
2023/07/29 07:26:53;;;;;;;14.03;9.53;;;;;;;;;;5100133;28;20027;-47
2023/07/29 07:29:18;;;;;;;11.50;8.47;;;;;;;;;;5081574;28;20023;-45
2023/07/29 07:31:49;;;;;;;13.23;10.18;;;;;;;;;;5090947;27;20164;-47
2023/07/29 07:34:14;;;;;;;9.82;7.22;;;;;;;;;;5083252;28;20024;-45
2023/07/29 07:36:39;;;;;;;9.47;7.53;;;;;;;;;;5101309;28;20504;-44
2023/07/29 07:39:04;;;;;;;14.87;7.73;;;;;;;;;;5099324;28;20039;-45
2023/07/29 07:41:30;;;;;;;10.87;7.43;;;;;;;;;;5104821;28;20031;-46
2023/07/29 07:43:55;;;;;;;10.27;7.10;;;;;;;;;;5101055;28;20858;-45
2023/07/29 07:46:20;;;;;;;9.30;6.40;;;;;;;;;;5098446;28;20035;-45
2023/07/29 07:48:45;;;;;;;5.57;4.03;;;;;;;;;;5098551;28;20028;-46
2023/07/29 07:51:12;;;;;;;8.93;6.97;;;;;;;;;;5098624;28;20296;-45
2023/07/29 07:53:37;;;;;;;12.57;7.75;;;;;;;;;;5095038;28;20049;-45
2023/07/29 07:56:02;;;;;;;10.93;6.93;;;;;;;;;;5100891;28;20023;-45
2023/07/29 07:58:27;;;;;;;12.93;7.70;;;;;;;;;;5101489;28;20023;-45
2023/07/29 08:01:00;;;;;;;8.00;5.90;;;;;;;;;;5099049;28;20028;-45
2023/07/29 08:03:25;;;;;;;7.22;4.82;;;;;;;;;;5105460;27;20062;-45
2023/07/29 08:05:51;;;;;;;9.67;5.80;;;;;;;;;;5097277;28;20055;-46
2023/07/29 08:08:16;;;;;;;11.00;5.83;;;;;;;;;;5090866;28;20693;-45
2023/07/29 08:10:41;;;;;;;8.60;5.17;;;;;;;;;;5100061;28;20051;-45
2023/07/29 08:13:06;;;;;;;16.67;10.87;;;;;;;;;;5103781;28;20024;-47
2023/07/29 08:15:32;;;;;;;8.73;6.13;;;;;;;;;;5097752;28;20992;-45
2023/07/29 08:17:57;;;;;;;8.43;5.87;;;;;;;;;;5099449;28;20020;-44
2023/07/29 08:20:22;;;;;;;8.17;4.73;;;;;;;;;;5101321;28;20024;-45
2023/07/29 08:22:47;;;;;;;7.33;4.73;;;;;;;;;;5084803;28;20439;-46
2023/07/29 08:25:13;;;;;;;8.37;4.93;;;;;;;;;;5094572;28;20035;-45
2023/07/29 08:27:38;;;;;;;8.15;4.38;;;;;;;;;;5090228;27;20031;-46
2023/07/29 08:30:03;;;;;;;5.67;4.03;;;;;;;;;;5097643;27;20039;-46
2023/07/29 08:32:29;;;;;;;5.60;4.07;;;;;;;;;;5100584;27;20396;-45
2023/07/29 08:34:54;;;;;;;6.77;3.97;;;;;;;;;;5103124;27;20102;-46
2023/07/29 08:37:19;;;;;;;6.13;4.23;;;;;;;;;;5095049;27;20024;-46
2023/07/29 08:39:44;;;;;;;5.80;3.95;;;;;;;;;;5090254;27;20365;-45
2023/07/29 08:42:11;;;;;;;5.03;3.40;;;;;;;;;;5096013;27;20118;-47
2023/07/29 08:44:40;;;;;;;8.38;5.00;;;;;;;;;;5097555;27;20106;-46
2023/07/29 08:47:06;;;;;;;2.30;1.70;;;;;;;;;;5102366;27;20046;-45
2023/07/29 08:49:32;;;;;;;4.88;2.75;;;;;;;;;;5110397;27;20110;-47
2023/07/29 08:51:57;;;;;;;6.78;3.22;;;;;;;;;;5096635;27;20064;-46
2023/07/29 08:54:23;;;;;;;4.75;2.85;;;;;;;;;;5103273;27;20062;-46
2023/07/29 08:56:48;;;;;;;6.15;2.90;;;;;;;;;;5096034;27;20034;-47
2023/07/29 08:59:14;;;;;;;5.25;3.17;;;;;;;;;;5091130;27;20024;-46
2023/07/29 09:01:39;;;;;;;6.18;3.58;;;;;;;;;;5093716;27;20032;-47
2023/07/29 09:04:04;;;;;;;6.35;3.30;;;;;;;;;;5096024;27;20046;-45
2023/07/29 09:06:30;;;;;;;8.13;3.67;;;;;;;;;;5095930;27;20015;-45
2023/07/29 09:08:56;;;;;;;6.28;3.38;;;;;;;;;;5101165;27;20027;-46
2023/07/29 09:11:22;;;;;;;5.22;3.05;;;;;;;;;;5094636;27;20491;-45
2023/07/29 09:13:47;;;;;;;4.88;3.22;;;;;;;;;;5089858;27;20027;-45
2023/07/29 09:16:13;;;;;;;5.20;3.23;;;;;;;;;;5091736;27;20144;-45
2023/07/29 09:18:38;;;;;;;3.72;2.35;;;;;;;;;;5098325;27;20270;-45
2023/07/29 09:21:03;;;;;;;3.85;2.40;;;;;;;;;;5097503;27;20031;-45
2023/07/29 09:23:38;;;;;;;3.57;2.40;;;;;;;;;;5101359;27;20015;-46
2023/07/29 09:26:03;;;;;;;6.90;3.67;;;;;;;;;;5095172;27;20345;-46
2023/07/29 09:28:33;;;;;;;5.40;2.97;;;;;;;;;;5102505;27;20031;-45
2023/07/29 09:30:58;;;;;;;4.22;2.60;;;;;;;;;;5099537;27;20055;-45
2023/07/29 09:33:25;;;;;;;3.55;2.50;;;;;;;;;;5091455;27;20043;-45
2023/07/29 09:35:51;;;;;;;5.57;2.72;;;;;;;;;;5100377;27;20023;-45
2023/07/29 09:38:16;;;;;;;5.35;3.47;;;;;;;;;;5102772;27;20031;-45
2023/07/29 09:40:41;;;;;;;3.67;2.20;;;;;;;;;;5096179;27;20038;-46
2023/07/29 09:43:08;;;;;;;4.47;2.70;;;;;;;;;;5101689;27;20296;-45
2023/07/29 09:45:35;;;;;;;6.50;2.78;;;;;;;;;;5096062;27;20277;-45
2023/07/29 09:48:00;;;;;;;3.90;2.70;;;;;;;;;;5094784;27;20047;-46
2023/07/29 09:50:26;;;;;;;2.58;1.77;;;;;;;;;;5099754;27;20115;-46
2023/07/29 09:52:53;;;;;;;7.32;3.78;;;;;;;;;;5103240;27;20062;-45
2023/07/29 09:55:19;;;;;;;5.53;2.97;;;;;;;;;;5101752;27;20154;-45
2023/07/29 09:57:44;;;;;;;3.95;2.72;;;;;;;;;;5102170;27;20025;-45
2023/07/29 10:00:13;;;;;;;5.82;3.20;;;;;;;;;;5098158;27;20008;-48
2023/07/29 10:02:42;;;;;;;5.25;3.22;;;;;;;;;;5095368;27;20012;-47
2023/07/29 10:05:08;;;;;;;5.05;3.30;;;;;;;;;;5080172;27;20024;-45
2023/07/29 10:07:36;;;;;;;7.53;2.78;;;;;;;;;;5103514;27;20055;-45
2023/07/29 10:10:02;;;;;;;5.97;3.40;;;;;;;;;;5103234;27;20023;-46
2023/07/29 10:12:28;;;;;;;5.47;3.47;;;;;;;;;;5108532;27;20065;-45
2023/07/29 10:14:54;;;;;;;3.97;2.97;;;;;;;;;;5090830;27;20054;-45
2023/07/29 10:17:20;;;;;;;6.30;3.50;;;;;;;;;;5095205;27;20059;-47
2023/07/29 10:19:46;;;;;;;5.03;3.15;;;;;;;;;;5098272;27;20023;-45
2023/07/29 10:22:12;;;;;;;5.18;3.40;;;;;;;;;;5103422;27;20027;-45
2023/07/29 10:24:41;;;;;;;8.20;3.47;;;;;;;;;;5097643;27;20020;-46
2023/07/29 10:27:06;;;;;;;5.22;3.65;;;;;;;;;;5089060;28;20499;-45
2023/07/29 10:29:34;;;;;;;5.88;3.95;;;;;;;;;;5098394;27;20049;-46
2023/07/29 10:32:01;;;;;;;10.23;5.68;;;;;;;;;;5079367;27;20500;-49
2023/07/29 10:34:27;;;;;;;5.75;3.65;;;;;;;;;;5076765;27;20502;-47
2023/07/29 10:36:53;;;;;;;5.22;3.55;;;;;;;;;;5099728;27;20038;-47
2023/07/29 10:39:18;;;;;;;5.63;3.40;;;;;;;;;;5076357;28;20395;-45
2023/07/29 10:42:00;;;;;;;5.33;3.00;;;;;;;;;;5104110;27;20036;-47
2023/07/29 10:44:25;;;;;;;;;;;;;;;;;;5095220;27;20284;-45
2023/07/29 10:46:50;;;;;;;7.83;4.23;;;;;;;;;;5098810;27;19919;-45
2023/07/29 10:49:22;;;;;;;6.47;4.10;;;;;;;;;;5098695;28;20463;-45
2023/07/29 10:51:48;;;;;;;5.25;3.53;;;;;;;;;;5091373;28;20297;-45
2023/07/29 10:54:14;;;;;;;8.35;4.18;;;;;;;;;;5099779;27;20012;-45
2023/07/29 10:56:57;;;;;;;5.70;3.90;;;;;;;;;;5103667;27;20039;-46
2023/07/29 10:59:32;;;;;;;3.83;3.30;;;;;;;;;;5101901;27;20039;-45
2023/07/29 11:01:58;;;;;;;5.32;3.00;;;;;;;;;;5097043;28;20062;-46
2023/07/29 11:04:24;;;;;;;4.38;3.30;;;;;;;;;;5095907;28;20473;-45
2023/07/29 11:07:04;;;;;;;3.88;2.72;;;;;;;;;;5096986;27;20072;-45
2023/07/29 11:09:51;;;;;;;5.03;3.08;;;;;;;;;;5096220;27;20041;-45
2023/07/29 11:12:35;;;;;;;3.75;2.85;;;;;;;;;;5090906;27;20526;-46
2023/07/29 11:15:02;;;;;;;4.25;3.08;;;;;;;;;;5098379;28;20027;-44
2023/07/29 11:17:28;;;;;;;3.92;3.00;;;;;;;;;;5103943;28;20452;-45
2023/07/29 11:19:55;;;;;;;4.00;3.03;;;;;;;;;;5081698;27;20598;-45
2023/07/29 11:22:20;;;;;;;5.07;3.20;;;;;;;;;;5089642;28;20394;-46
2023/07/29 11:24:45;;;;;;;5.57;3.10;;;;;;;;;;5083450;28;20993;-46
2023/07/29 11:27:13;;;;;;;4.60;2.67;;;;;;;;;;5085660;28;20057;-45
2023/07/29 11:29:38;;;;;;;4.57;2.58;;;;;;;;;;5094090;28;20517;-45
2023/07/29 11:32:04;;;;;;;5.30;2.97;;;;;;;;;;5097194;28;20031;-47
2023/07/29 11:34:32;;;;;;;3.88;3.17;;;;;;;;;;5104300;27;20277;-45
2023/07/29 11:36:57;;;;;;;7.50;3.05;;;;;;;;;;5098022;27;20054;-45
2023/07/29 11:39:23;;;;;;;5.43;2.60;;;;;;;;;;5101379;28;20047;-46
2023/07/29 11:41:48;;;;;;;3.90;3.03;;;;;;;;;;5100041;28;21000;-46
2023/07/29 11:44:16;;;;;;;4.30;2.77;;;;;;;;;;5097828;28;20033;-45
2023/07/29 11:46:42;;;;;;;4.78;2.80;;;;;;;;;;5103400;28;20027;-46
2023/07/29 11:49:08;;;;;;;4.65;2.78;;;;;;;;;;5102858;28;20104;-46
2023/07/29 11:51:33;;;;;;;4.20;3.07;;;;;;;;;;5103315;28;20034;-45
2023/07/29 11:53:59;;;;;;;5.87;2.53;;;;;;;;;;5099699;28;20023;-45
2023/07/29 11:56:24;;;;;;;7.25;3.03;;;;;;;;;;5104845;28;20274;-46
2023/07/29 11:58:50;;;;;;;4.20;2.95;;;;;;;;;;5104443;28;20033;-46
2023/07/29 12:01:15;;;;;;;5.73;2.73;;;;;;;;;;5095664;28;20063;-45
2023/07/29 12:03:40;;;;;;;3.77;2.67;;;;;;;;;;5105793;27;20265;-47
2023/07/29 12:06:06;;;;;;;3.33;2.60;;;;;;;;;;5106132;27;20930;-46
2023/07/29 12:08:32;;;;;;;2.22;1.63;;;;;;;;;;5108100;28;20850;-47
2023/07/29 12:10:57;;;;;;;4.63;2.65;;;;;;;;;;5107493;27;20038;-45
2023/07/29 12:13:25;;;;;;;4.30;2.63;;;;;;;;;;5108130;27;20054;-46
2023/07/29 12:15:50;;;;;;;4.75;2.80;;;;;;;;;;5111618;27;20074;-46
2023/07/29 12:18:16;;;;;;;4.37;2.73;;;;;;;;;;5111216;27;20394;-47
2023/07/29 12:20:41;;;;;;;3.63;2.67;;;;;;;;;;5106323;27;20361;-46
2023/07/29 12:23:07;;;;;;;4.40;2.60;;;;;;;;;;5109490;28;20038;-46
2023/07/29 12:25:33;;;;;;;7.88;4.07;;;;;;;;;;5107016;27;20647;-46
2023/07/29 12:28:02;;;;;;;4.43;2.53;;;;;;;;;;5105328;27;20027;-46
2023/07/29 12:30:27;;;;;;;4.00;2.70;;;;;;;;;;5098091;27;20024;-46
2023/07/29 12:32:53;;;;;;;5.03;3.80;;;;;;;;;;5099889;27;20032;-46
2023/07/29 12:35:18;;;;;;;9.33;4.20;;;;;;;;;;5096724;27;20281;-46
2023/07/29 12:37:43;;;;;;;7.93;5.07;;;;;;;;;;5103558;27;20030;-46
2023/07/29 12:40:20;;;;;;;7.00;4.68;;;;;;;;;;5110055;27;20350;-46
2023/07/29 12:42:45;;;;;;;6.78;4.55;;;;;;;;;;5096726;27;20453;-46
2023/07/29 12:45:11;;;;;;;12.73;7.07;;;;;;;;;;5103931;27;20538;-46
2023/07/29 12:47:36;;;;;;;17.30;6.13;;;;;;;;;;5108070;27;20550;-47
2023/07/29 12:50:01;;;;;;;10.40;5.17;;;;;;;;;;5102350;27;20015;-50
2023/07/29 12:52:26;;;;;;;13.60;5.77;;;;;;;;;;5102728;27;20040;-48
2023/07/29 12:54:52;;;;;;;10.77;5.83;;;;;;;;;;5092561;27;20204;-47
2023/07/29 12:57:17;;;;;;;10.37;5.10;;;;;;;;;;5104150;27;20274;-48
2023/07/29 12:59:42;;;;;;;11.47;5.97;;;;;;;;;;5098950;27;20666;-47
2023/07/29 13:02:08;;;;;;;15.93;6.40;;;;;;;;;;5108197;27;20142;-49
2023/07/29 13:04:33;;;;;;;12.70;6.22;;;;;;;;;;5108121;28;20028;-49
2023/07/29 13:06:59;;;;;;;11.00;4.30;;;;;;;;;;5108214;27;20391;-48
2023/07/29 13:09:25;;;;;;;12.32;4.60;;;;;;;;;;5106708;27;20059;-49
2023/07/29 13:11:50;;;;;;;11.73;4.63;;;;;;;;;;5109072;27;20446;-50
2023/07/29 13:14:15;;;;;;;8.73;4.33;;;;;;;;;;5108747;27;20273;-47
2023/07/29 13:16:40;;;;;;;17.00;8.57;;;;;;;;;;5102671;27;20372;-49
2023/07/29 13:19:06;;;;;;;7.00;2.80;;;;;;;;;;5103997;27;20084;-47
2023/07/29 13:21:31;;;;;;;5.43;2.00;;;;;;;;;;5112440;27;20265;-48
2023/07/29 13:23:56;;;;;;;5.00;1.53;;;;;;;;;;5109431;28;20036;-50
2023/07/29 13:26:21;;;;;;;4.97;2.00;;;;;;;;;;5105353;27;20355;-48
2023/07/29 13:28:47;;;;;;;5.03;1.60;;;;;;;;;;5105329;27;20281;-50
2023/07/29 13:31:12;;;;;;;5.60;1.60;;;;;;;;;;5106322;27;20277;-48
2023/07/29 13:33:38;;;;;;;9.50;3.47;;;;;;;;;;5106680;27;20269;-48
2023/07/29 13:36:03;;;;;;;8.25;3.63;;;;;;;;;;5095496;27;20020;-48
2023/07/29 13:38:29;;;;;;;7.97;2.90;;;;;;;;;;5100832;27;20031;-48
2023/07/29 13:40:54;;;;;;;4.43;1.63;;;;;;;;;;5107959;27;20046;-48
2023/07/29 13:43:19;;;;;;;7.13;1.40;;;;;;;;;;5098688;27;20034;-47
2023/07/29 13:45:45;;;;;;;3.70;1.10;;;;;;;;;;5101297;27;20285;-48
2023/07/29 13:48:10;;;;;;;2.93;1.07;;;;;;;;;;5105918;27;20020;-47
2023/07/29 13:50:35;;;;;;;2.70;1.10;;;;;;;;;;5105035;27;20329;-46
2023/07/29 13:53:01;;;;;;;4.05;1.27;;;;;;;;;;5099565;27;20285;-47
2023/07/29 13:55:26;;;;;;;16.48;4.05;;;;;;;;;;5085931;27;20023;-46
2023/07/29 13:57:52;;;;;;;3.53;1.50;;;;;;;;;;5092034;27;20020;-46
2023/07/29 14:00:17;;;;;;;6.72;1.38;;;;;;;;;;5091133;27;20285;-46
2023/07/29 14:02:43;;;;;;;5.18;1.88;;;;;;;;;;5090888;27;20039;-45
2023/07/29 14:05:08;;;;;;;4.68;1.38;;;;;;;;;;5101705;27;20070;-45
2023/07/29 14:07:34;;;;;;;4.07;1.55;;;;;;;;;;5101695;27;20032;-46
2023/07/29 14:09:59;;;;;;;4.60;1.63;;;;;;;;;;5090328;27;20059;-46
2023/07/29 14:12:24;;;;;;;8.40;3.40;;;;;;;;;;5083282;28;20292;-46
2023/07/29 14:14:50;;;;;;;3.60;1.90;;;;;;;;;;5093379;27;20566;-46
2023/07/29 14:17:15;;;;;;;6.63;2.50;;;;;;;;;;5095041;27;20364;-46
2023/07/29 14:19:40;;;;;;;8.13;3.20;;;;;;;;;;5095468;27;20545;-46
2023/07/29 14:22:06;;;;;;;3.73;2.23;;;;;;;;;;5100136;27;20301;-46
2023/07/29 14:24:31;;;;;;;5.90;2.78;;;;;;;;;;5103120;27;21164;-46
2023/07/29 14:26:57;;;;;;;3.87;1.90;;;;;;;;;;5106338;27;21700;-46
2023/07/29 14:29:22;;;;;;;7.72;3.38;;;;;;;;;;5104795;27;20034;-46
2023/07/29 14:31:47;;;;;;;6.60;3.13;;;;;;;;;;5097887;27;20692;-46
2023/07/29 14:34:13;;;;;;;4.78;2.50;;;;;;;;;;5102743;27;20440;-46